Time;durP1;ratioP1;P1;durP2;ratioP2;P2;SDS_P1;SDS_P2;PMS_P1;PMS_P2;Temp;Humidity;BMP_temperature;BMP_pressure;BME280_temperature;BME280_humidity;BME280_pressure;Samples;Min_cycle;Max_cycle;Signal;HPM_P1;HPM_P2
2022/11/28 00:02:22;;;;;;;16.90;9.43;;;;;;;0.15;100.00;101360.94;4934415;28;20210;-71
2022/11/28 00:04:50;;;;;;;18.27;9.73;;;;;;;0.14;100.00;101359.19;4939738;28;20204;-71
2022/11/28 00:07:18;;;;;;;18.07;10.23;;;;;;;0.14;100.00;101361.75;4936984;28;20210;-70
2022/11/28 00:09:44;;;;;;;20.33;10.27;;;;;;;0.10;100.00;101354.81;4929776;28;20225;-70
2022/11/28 00:12:11;;;;;;;18.37;9.67;;;;;;;0.12;100.00;101348.00;4937489;29;20268;-71
2022/11/28 00:14:37;;;;;;;22.70;10.40;;;;;;;0.09;100.00;101345.34;4939680;28;20677;-71
2022/11/28 00:17:04;;;;;;;17.20;9.30;;;;;;;0.08;100.00;101349.63;4938171;28;20203;-70
2022/11/28 00:19:56;;;;;;;19.00;9.87;;;;;;;0.07;100.00;101342.78;4937620;28;20241;-70
2022/11/28 00:22:26;;;;;;;15.97;9.17;;;;;;;0.07;100.00;101337.66;4932988;29;20575;-71
2022/11/28 00:24:53;;;;;;;19.50;10.40;;;;;;;0.09;100.00;101338.56;4938293;29;20304;-70
2022/11/28 00:27:19;;;;;;;19.40;10.17;;;;;;;0.11;100.00;101336.91;4939570;28;20284;-71
2022/11/28 00:29:45;;;;;;;20.30;9.87;;;;;;;0.10;100.00;101335.16;4935901;28;20526;-70
2022/11/28 00:32:12;;;;;;;17.73;10.00;;;;;;;0.12;100.00;101336.09;4937796;28;20302;-71
2022/11/28 00:34:38;;;;;;;18.23;10.00;;;;;;;0.11;100.00;101336.03;4939013;28;20470;-70
2022/11/28 00:37:05;;;;;;;17.67;9.60;;;;;;;0.09;100.00;101333.44;4940813;28;20880;-71
2022/11/28 00:39:32;;;;;;;17.40;9.60;;;;;;;0.09;100.00;101329.97;4940753;28;20230;-71
2022/11/28 00:41:59;;;;;;;19.57;9.63;;;;;;;0.08;100.00;101333.38;4940122;28;20212;-70
2022/11/28 00:44:25;;;;;;;16.03;8.67;;;;;;;0.06;100.00;101333.34;4942028;28;20203;-71
2022/11/28 00:46:51;;;;;;;18.33;9.70;;;;;;;0.04;100.00;101336.69;4936532;28;20214;-71
2022/11/28 00:49:18;;;;;;;14.87;9.20;;;;;;;0.05;100.00;101329.00;4938505;28;20233;-71
2022/11/28 00:51:44;;;;;;;16.67;9.30;;;;;;;0.03;100.00;101322.97;4940136;28;20232;-69
2022/11/28 00:54:11;;;;;;;17.07;9.30;;;;;;;0.03;100.00;101325.53;4939932;29;20290;-71
2022/11/28 00:56:40;;;;;;;17.77;9.37;;;;;;;0.02;100.00;101328.94;4940761;29;20222;-71
2022/11/28 00:59:07;;;;;;;18.43;8.90;;;;;;;0.02;100.00;101321.25;4937672;29;20305;-71
2022/11/28 01:01:35;;;;;;;24.27;12.60;;;;;;;0.01;100.00;101319.50;4939073;29;20241;-71
2022/11/28 01:04:04;;;;;;;18.83;9.60;;;;;;;-0.01;100.00;101322.03;4939508;28;20210;-71
2022/11/28 01:06:34;;;;;;;17.70;9.27;;;;;;;-0.05;100.00;101319.34;4939385;28;20227;-71
2022/11/28 01:09:04;;;;;;;17.13;9.67;;;;;;;-0.06;100.00;101304.78;4937817;29;20219;-70
2022/11/28 01:11:31;;;;;;;16.67;8.43;;;;;;;-0.04;100.00;101308.25;4941389;28;20195;-70
2022/11/28 01:14:01;;;;;;;19.93;9.43;;;;;;;-0.07;100.00;101305.59;4938934;28;20195;-71
2022/11/28 01:16:28;;;;;;;18.33;9.17;;;;;;;-0.05;100.00;101298.84;4940204;29;20683;-71
2022/11/28 01:18:54;;;;;;;20.83;9.67;;;;;;;-0.06;100.00;101297.94;4934234;29;20225;-71
2022/11/28 01:21:21;;;;;;;19.00;9.10;;;;;;;-0.06;100.00;101289.41;4950266;28;20240;-71
2022/11/28 01:23:48;;;;;;;17.47;9.33;;;;;;;-0.08;100.00;101289.34;4938512;28;20187;-71
2022/11/28 01:26:17;;;;;;;16.67;8.80;;;;;;;-0.08;100.00;101291.91;4936124;28;20203;-71
2022/11/28 01:28:44;;;;;;;14.97;8.20;;;;;;;-0.07;100.00;101283.41;4939713;29;20229;-71
2022/11/28 01:31:15;;;;;;;15.93;9.27;;;;;;;-0.08;100.00;101279.09;4939764;28;20272;-71
2022/11/28 01:33:42;;;;;;;16.70;8.90;;;;;;;-0.07;100.00;101273.16;4934164;28;20709;-70
2022/11/28 01:36:10;;;;;;;16.90;8.70;;;;;;;-0.06;100.00;101268.88;4939174;28;20218;-71
2022/11/28 01:38:37;;;;;;;18.13;9.83;;;;;;;-0.07;100.00;101273.16;4941215;29;20237;-71
2022/11/28 01:41:05;;;;;;;17.83;9.23;;;;;;;-0.07;100.00;101268.03;4942056;28;20229;-71
2022/11/28 01:43:31;;;;;;;15.70;8.60;;;;;;;-0.08;100.00;101265.41;4941415;29;20217;-71
2022/11/28 01:45:58;;;;;;;17.33;9.27;;;;;;;-0.09;100.00;101276.50;4942915;28;20201;-71
2022/11/28 01:48:28;;;;;;;17.10;9.20;;;;;;;-0.12;100.00;101261.91;4942340;28;20230;-70
2022/11/28 01:50:58;;;;;;;19.90;8.60;;;;;;;-0.14;100.00;101263.56;4942163;28;20529;-71
2022/11/28 01:53:26;;;;;;;16.10;8.17;;;;;;;-0.13;100.00;101264.41;4941475;29;20786;-71
2022/11/28 01:55:57;;;;;;;16.37;8.50;;;;;;;-0.16;100.00;101256.63;4942313;28;20221;-70
2022/11/28 01:58:25;;;;;;;21.53;9.37;;;;;;;-0.15;100.00;101251.56;4942295;28;20686;-71
2022/11/28 02:00:51;;;;;;;15.27;8.33;;;;;;;-0.16;100.00;101259.19;4940427;28;21389;-70
2022/11/28 02:03:24;;;;;;;19.77;8.57;;;;;;;-0.16;100.00;101252.38;4939617;28;20245;-71
2022/11/28 02:05:52;;;;;;;19.87;8.57;;;;;;;-0.15;100.00;101243.00;4942292;28;20575;-71
2022/11/28 02:08:19;;;;;;;13.93;8.53;;;;;;;-0.16;100.00;101248.94;4941730;28;20253;-71
2022/11/28 02:11:06;;;;;;;14.57;7.87;;;;;;;-0.14;100.00;101248.19;4936869;28;20207;-70
2022/11/28 02:13:41;;;;;;;15.90;8.63;;;;;;;-0.14;100.00;101247.28;4944651;28;20504;-70
2022/11/28 02:16:20;;;;;;;18.77;7.87;;;;;;;-0.16;100.00;101248.94;4942197;28;20217;-71
2022/11/28 02:18:59;;;;;;;23.50;9.47;;;;;;;-0.14;100.00;101244.72;4935934;28;20222;-70
2022/11/28 02:21:45;;;;;;;17.77;8.73;;;;;;;-0.15;100.00;101235.31;4944699;28;20518;-71
2022/11/28 02:24:35;;;;;;;17.90;8.40;;;;;;;-0.17;100.00;101232.72;4936140;29;20207;-71
2022/11/28 02:27:16;;;;;;;13.97;7.87;;;;;;;-0.18;100.00;101242.91;4955996;28;20649;-71
2022/11/28 02:30:03;;;;;;;16.60;8.50;;;;;;;-0.18;100.00;101232.66;4939120;28;20317;-71
2022/11/28 02:32:40;;;;;;;17.07;8.83;;;;;;;-0.18;100.00;101227.53;4939808;28;20635;-71
2022/11/28 02:35:10;;;;;;;17.67;9.10;;;;;;;-0.21;100.00;101224.06;4942442;29;20205;-71
2022/11/28 02:37:44;;;;;;;18.93;8.77;;;;;;;-0.21;100.00;101230.91;4943069;29;20830;-71
2022/11/28 02:40:17;;;;;;;18.47;9.43;;;;;;;-0.26;100.00;101225.63;4940719;29;20241;-71
2022/11/28 02:42:54;;;;;;;17.70;8.97;;;;;;;-0.27;100.00;101213.63;4942399;28;20204;-70
2022/11/28 02:45:27;;;;;;;19.83;10.00;;;;;;;-0.26;100.00;101211.97;4941933;28;20207;-71
2022/11/28 02:48:02;;;;;;;20.30;9.87;;;;;;;-0.28;100.00;101213.59;4940854;28;20764;-70
2022/11/28 02:50:34;;;;;;;19.00;9.77;;;;;;;-0.28;100.00;101214.47;4940088;28;20679;-71
2022/11/28 02:53:07;;;;;;;22.87;9.23;;;;;;;-0.30;100.00;101216.13;4942386;28;20602;-71
2022/11/28 02:55:38;;;;;;;17.03;9.40;;;;;;;-0.32;100.00;101207.50;4940592;28;20218;-71
2022/11/28 02:58:04;;;;;;;21.60;10.03;;;;;;;-0.34;100.00;101208.31;4938893;28;20208;-71
2022/11/28 03:00:33;;;;;;;22.23;10.47;;;;;;;-0.36;100.00;101204.84;4940255;29;20205;-71
2022/11/28 03:03:14;;;;;;;20.20;10.40;;;;;;;-0.35;100.00;101209.13;4940692;28;20211;-71
2022/11/28 03:05:45;;;;;;;22.47;10.10;;;;;;;-0.40;100.00;101209.88;4938953;29;20201;-71
2022/11/28 03:08:26;;;;;;;23.80;11.27;;;;;;;-0.40;100.00;101204.75;4939284;29;20710;-70
2022/11/28 03:11:02;;;;;;;22.80;10.33;;;;;;;-0.39;100.00;101209.06;4942885;28;20217;-70
2022/11/28 03:13:39;;;;;;;20.80;9.80;;;;;;;-0.38;100.00;101205.66;4939994;29;20292;-71
2022/11/28 03:16:15;;;;;;;25.10;11.87;;;;;;;-0.32;100.00;101197.25;4953443;28;20210;-71
2022/11/28 03:18:51;;;;;;;28.57;11.77;;;;;;;-0.34;100.00;101187.81;4939086;29;20575;-71
2022/11/28 03:21:25;;;;;;;26.00;11.93;;;;;;;-0.34;100.00;101188.66;4938640;28;20690;-71
2022/11/28 03:23:58;;;;;;;18.73;10.73;;;;;;;-0.31;100.00;101182.78;4940792;28;20590;-71
2022/11/28 03:26:31;;;;;;;24.17;11.20;;;;;;;-0.33;100.00;101175.03;4935826;29;20212;-71
2022/11/28 03:29:02;;;;;;;29.63;12.67;;;;;;;-0.34;100.00;101180.13;4935690;28;20214;-70
2022/11/28 03:31:34;;;;;;;21.20;10.83;;;;;;;-0.35;100.00;101179.25;4943538;28;20195;-72
2022/11/28 03:34:06;;;;;;;29.97;12.97;;;;;;;-0.35;100.00;101181.81;4940165;28;20207;-71
2022/11/28 03:36:39;;;;;;;28.70;11.50;;;;;;;-0.34;100.00;101177.56;4940281;29;20234;-71
2022/11/28 03:39:11;;;;;;;26.30;12.20;;;;;;;-0.35;100.00;101186.06;4939942;28;20241;-70
2022/11/28 03:41:41;;;;;;;21.63;10.73;;;;;;;-0.34;100.00;101185.25;4945749;28;20591;-71
2022/11/28 03:44:11;;;;;;;23.87;11.70;;;;;;;-0.37;100.00;101178.31;4940419;28;20912;-70
2022/11/28 03:46:41;;;;;;;25.00;12.00;;;;;;;-0.35;100.00;101175.81;4940054;29;20198;-71
2022/11/28 03:49:11;;;;;;;36.03;13.57;;;;;;;-0.36;100.00;101174.94;4939514;28;20598;-71
2022/11/28 03:51:44;;;;;;;24.97;11.63;;;;;;;-0.36;100.00;101172.38;4936920;29;20203;-71
2022/11/28 03:54:13;;;;;;;23.67;11.90;;;;;;;-0.34;100.00;101168.16;4941746;29;20703;-71
2022/11/28 03:56:48;;;;;;;29.83;15.37;;;;;;;-0.34;100.00;101168.16;4939001;28;20221;-71
2022/11/28 03:59:22;;;;;;;29.63;11.70;;;;;;;-0.33;100.00;101172.47;4938402;28;20392;-71
2022/11/28 04:01:58;;;;;;;26.03;12.67;;;;;;;-0.33;100.00;101164.78;4938748;28;21007;-71
2022/11/28 04:04:29;;;;;;;25.80;13.17;;;;;;;-0.31;100.00;101163.13;4951623;28;20687;-71
2022/11/28 04:06:58;;;;;;;29.03;13.57;;;;;;;-0.32;100.00;101163.94;4939477;28;20204;-71
2022/11/28 04:09:37;;;;;;;28.60;12.87;;;;;;;-0.32;100.00;101166.50;4938356;28;20699;-71
2022/11/28 04:12:10;;;;;;;26.80;12.47;;;;;;;-0.31;100.00;101165.69;4936963;29;20207;-70
2022/11/28 04:14:42;;;;;;;25.20;12.97;;;;;;;-0.30;100.00;101164.00;4940629;28;20213;-71
2022/11/28 04:17:15;;;;;;;23.47;12.17;;;;;;;-0.30;100.00;101159.75;4938313;28;20591;-71
2022/11/28 04:19:48;;;;;;;27.60;12.17;;;;;;;-0.30;100.00;101159.75;4940568;28;20313;-71
2022/11/28 04:22:18;;;;;;;24.67;11.53;;;;;;;-0.30;100.00;101167.44;4949626;28;20600;-71
2022/11/28 04:24:49;;;;;;;26.90;12.20;;;;;;;-0.28;100.00;101162.34;4939947;28;20702;-71
2022/11/28 04:27:19;;;;;;;26.67;11.17;;;;;;;-0.28;100.00;101165.78;4938377;29;20210;-71
2022/11/28 04:29:49;;;;;;;23.57;11.17;;;;;;;-0.26;100.00;101165.84;4941554;28;20223;-71
2022/11/28 04:32:19;;;;;;;30.10;12.60;;;;;;;-0.27;100.00;101156.38;4934805;29;20567;-71
2022/11/28 04:34:50;;;;;;;27.73;12.40;;;;;;;-0.26;100.00;101153.88;4939695;29;20308;-71
2022/11/28 04:37:19;;;;;;;30.17;12.93;;;;;;;-0.25;100.00;101155.59;4938146;29;20223;-71
2022/11/28 04:39:48;;;;;;;22.93;11.37;;;;;;;-0.25;100.00;101147.91;4979538;23;20232;-75
2022/11/28 04:42:18;;;;;;;25.90;12.03;;;;;;;-0.25;100.00;101145.34;4984858;28;20748;-75
2022/11/28 04:44:48;;;;;;;24.90;11.97;;;;;;;-0.24;100.00;101148.78;4964998;28;20197;-75
2022/11/28 04:47:15;;;;;;;22.60;10.83;;;;;;;-0.24;100.00;101144.53;4982609;28;20232;-75
2022/11/28 04:49:42;;;;;;;24.67;11.27;;;;;;;-0.20;100.00;101132.66;4964285;28;20873;-75
2022/11/28 04:52:17;;;;;;;22.30;10.80;;;;;;;-0.22;100.00;101132.59;4980488;28;20215;-75
2022/11/28 04:54:52;;;;;;;30.47;12.37;;;;;;;-0.22;100.00;101124.06;4970067;28;20213;-75
2022/11/28 04:57:24;;;;;;;24.67;11.77;;;;;;;-0.22;100.00;101137.75;4963420;28;20304;-75
2022/11/28 04:59:52;;;;;;;24.33;11.23;;;;;;;-0.21;100.00;101128.38;4979731;28;20256;-75
2022/11/28 05:02:21;;;;;;;24.23;11.80;;;;;;;-0.19;100.00;101131.84;4961626;28;20209;-75
2022/11/28 05:04:47;;;;;;;29.00;12.10;;;;;;;-0.18;100.00;101136.13;4967011;28;20213;-75
2022/11/28 05:07:15;;;;;;;29.13;12.23;;;;;;;-0.17;100.00;101130.19;4980255;28;20251;-75
2022/11/28 05:09:41;;;;;;;24.53;11.83;;;;;;;-0.17;100.00;101130.19;4979359;28;20217;-75
2022/11/28 05:12:08;;;;;;;29.83;12.57;;;;;;;-0.17;100.00;101125.06;4982324;28;20674;-75
2022/11/28 05:14:34;;;;;;;25.30;12.17;;;;;;;-0.17;100.00;101130.19;4965258;28;20612;-74
2022/11/28 05:17:01;;;;;;;25.77;11.93;;;;;;;-0.15;100.00;101131.09;4978698;28;20224;-75
2022/11/28 05:19:27;;;;;;;25.37;12.20;;;;;;;-0.14;100.00;101122.56;4972959;28;20225;-75
2022/11/28 05:21:53;;;;;;;25.63;12.07;;;;;;;-0.13;100.00;101123.44;5046852;28;20205;-75
2022/11/28 05:24:21;;;;;;;23.53;11.40;;;;;;;-0.13;100.00;101128.56;4982729;28;20304;-75
2022/11/28 05:26:47;;;;;;;24.67;11.87;;;;;;;-0.12;100.00;101122.59;4982910;28;20288;-75
2022/11/28 05:29:14;;;;;;;23.70;11.77;;;;;;;-0.11;100.00;101132.03;4964721;28;20229;-74
2022/11/28 05:31:40;;;;;;;25.83;11.73;;;;;;;-0.09;100.00;101123.56;4966381;28;20554;-75
2022/11/28 05:34:07;;;;;;;20.93;10.53;;;;;;;-0.10;100.00;101114.13;4968263;28;20204;-76
2022/11/28 05:36:33;;;;;;;26.13;12.13;;;;;;;-0.10;100.00;101108.13;4985031;28;20221;-74
2022/11/28 05:38:59;;;;;;;24.33;12.10;;;;;;;-0.08;100.00;101119.28;4966824;28;20271;-75
2022/11/28 05:41:30;;;;;;;28.67;11.93;;;;;;;-0.07;100.00;101108.19;4982418;28;20202;-75
2022/11/28 05:43:57;;;;;;;25.93;11.80;;;;;;;-0.05;100.00;101111.69;4968421;28;20214;-74
2022/11/28 05:46:24;;;;;;;27.73;12.33;;;;;;;-0.05;100.00;101101.44;4982833;28;20208;-74
2022/11/28 05:48:50;;;;;;;25.80;12.17;;;;;;;-0.04;100.00;101108.28;4978291;28;20724;-75
2022/11/28 05:51:17;;;;;;;29.40;12.43;;;;;;;-0.03;100.00;101099.78;4980062;28;20208;-75
2022/11/28 05:53:43;;;;;;;26.70;11.97;;;;;;;-0.01;100.00;101111.78;4981969;28;20209;-76
2022/11/28 05:56:13;;;;;;;26.87;12.63;;;;;;;-0.02;100.00;101104.94;4985717;28;20258;-75
2022/11/28 05:58:41;;;;;;;25.50;11.10;;;;;;;-0.01;100.00;101103.22;4980875;28;20221;-75
2022/11/28 06:01:12;;;;;;;23.00;11.23;;;;;;;0.04;100.00;101111.06;4978554;28;20476;-75
2022/11/28 06:03:38;;;;;;;23.70;10.83;;;;;;;0.06;100.00;101094.84;4977705;28;20263;-74
2022/11/28 06:06:09;;;;;;;25.70;11.23;;;;;;;0.06;100.00;101102.56;4954119;28;20211;-75
2022/11/28 06:08:35;;;;;;;25.10;12.00;;;;;;;0.08;100.00;101095.75;4978254;28;20300;-75
2022/11/28 06:11:02;;;;;;;25.47;11.20;;;;;;;0.10;100.00;101093.22;4977679;28;20202;-75
2022/11/28 06:13:29;;;;;;;26.70;11.23;;;;;;;0.10;100.00;101094.09;4964853;28;20332;-74
2022/11/28 06:15:56;;;;;;;27.87;12.00;;;;;;;0.12;100.00;101094.13;4968366;28;20213;-75
2022/11/28 06:18:23;;;;;;;23.87;11.13;;;;;;;0.14;100.00;101092.47;4960434;28;20225;-75
2022/11/28 06:20:49;;;;;;;23.60;12.17;;;;;;;0.13;100.00;101077.94;4975211;28;20574;-75
2022/11/28 06:23:15;;;;;;;28.00;12.27;;;;;;;0.12;100.00;101092.47;4965982;28;20206;-74
2022/11/28 06:25:42;;;;;;;28.97;11.17;;;;;;;0.12;100.00;101084.75;4984432;28;20206;-75
2022/11/28 06:28:09;;;;;;;27.90;12.53;;;;;;;0.10;100.00;101083.84;4984689;28;20201;-75
2022/11/28 06:30:35;;;;;;;28.63;12.63;;;;;;;0.11;100.00;101089.84;4983095;28;20226;-74
2022/11/28 06:33:03;;;;;;;29.47;14.27;;;;;;;0.09;100.00;101088.91;4979222;28;20205;-75
2022/11/28 06:35:29;;;;;;;42.33;19.80;;;;;;;0.07;100.00;101077.75;4988489;28;20194;-75
2022/11/28 06:37:55;;;;;;;40.73;18.53;;;;;;;0.06;100.00;101083.75;4983425;28;20254;-74
2022/11/28 06:40:22;;;;;;;32.23;15.53;;;;;;;0.06;100.00;101086.31;4985307;28;20497;-75
2022/11/28 06:42:49;;;;;;;24.30;13.37;;;;;;;0.05;100.00;101082.00;4983148;28;20214;-74
2022/11/28 06:45:16;;;;;;;26.53;12.60;;;;;;;0.03;100.00;101092.22;4983318;28;20493;-75
2022/11/28 06:47:42;;;;;;;25.60;12.43;;;;;;;0.03;100.00;101086.22;4979812;28;20193;-76
2022/11/28 06:50:11;;;;;;;25.37;13.00;;;;;;;0.03;100.00;101081.94;4980949;28;20595;-75
2022/11/28 06:52:37;;;;;;;27.77;12.00;;;;;;;0.01;100.00;101083.63;4980140;28;20205;-75
2022/11/28 06:55:04;;;;;;;27.03;12.70;;;;;;;0.01;100.00;101080.19;4987521;28;20229;-75
2022/11/28 06:57:31;;;;;;;27.10;11.67;;;;;;;0.00;100.00;101079.34;4986242;28;20632;-75
2022/11/28 06:59:57;;;;;;;29.40;16.13;;;;;;;-0.02;100.00;101070.72;4983030;28;20213;-75
2022/11/28 07:02:26;;;;;;;29.80;12.87;;;;;;;-0.02;100.00;101078.41;4978168;28;20201;-75
2022/11/28 07:04:52;;;;;;;27.20;12.10;;;;;;;-0.02;100.00;101075.84;4976478;28;20206;-74
2022/11/28 07:07:20;;;;;;;27.43;12.23;;;;;;;-0.02;100.00;101069.03;4963754;28;20670;-75
2022/11/28 07:09:46;;;;;;;25.97;11.87;;;;;;;-0.02;100.00;101063.91;4974902;28;20585;-74
2022/11/28 07:12:13;;;;;;;27.13;11.00;;;;;;;0.00;100.00;101058.84;4980805;28;20209;-74
2022/11/28 07:14:40;;;;;;;24.93;11.57;;;;;;;0.00;100.00;101066.53;4980917;28;20714;-75
2022/11/28 07:17:06;;;;;;;25.93;11.83;;;;;;;0.01;100.00;101054.56;4982710;28;20616;-75
2022/11/28 07:19:33;;;;;;;26.33;12.07;;;;;;;0.03;100.00;101051.19;4965196;28;20225;-75
2022/11/28 07:21:59;;;;;;;23.33;11.57;;;;;;;0.04;100.00;101057.22;4981018;28;20201;-75
2022/11/28 07:24:28;;;;;;;26.83;12.60;;;;;;;0.04;100.00;101047.81;4985296;28;20220;-75
2022/11/28 07:26:55;;;;;;;29.20;12.47;;;;;;;0.07;100.00;101047.00;4987832;28;20282;-75
2022/11/28 07:29:21;;;;;;;27.97;12.37;;;;;;;0.11;100.00;101056.53;4967102;28;20234;-75
2022/11/28 07:31:48;;;;;;;29.00;13.73;;;;;;;0.13;100.00;101058.28;4979666;28;20517;-76
2022/11/28 07:34:14;;;;;;;30.57;12.73;;;;;;;0.15;100.00;101051.47;4970815;28;20213;-75
2022/11/28 07:36:41;;;;;;;29.90;13.63;;;;;;;0.17;100.00;101046.38;4963791;28;20209;-74
2022/11/28 07:39:08;;;;;;;27.57;13.90;;;;;;;0.21;100.00;101047.31;4981772;28;20333;-74
2022/11/28 07:41:36;;;;;;;29.80;12.87;;;;;;;0.23;100.00;101054.25;4983810;28;20198;-75
2022/11/28 07:44:04;;;;;;;36.40;15.57;;;;;;;0.25;100.00;101039.75;4987113;28;20206;-75
2022/11/28 07:46:32;;;;;;;28.23;13.60;;;;;;;0.29;100.00;101046.66;4964877;28;20205;-74
2022/11/28 07:48:59;;;;;;;27.17;12.90;;;;;;;0.32;100.00;101043.31;4971806;28;20206;-74
2022/11/28 07:51:28;;;;;;;30.60;14.00;;;;;;;0.34;100.00;101041.66;4984069;28;20240;-75
2022/11/28 07:53:55;;;;;;;35.47;14.87;;;;;;;0.35;100.00;101039.13;4985157;28;20209;-75
2022/11/28 07:56:23;;;;;;;33.83;13.27;;;;;;;0.36;100.00;101030.56;4962610;28;20551;-75
2022/11/28 07:58:51;;;;;;;28.17;14.20;;;;;;;0.43;100.00;101029.00;4978734;28;20229;-74
2022/11/28 08:01:19;;;;;;;34.57;13.13;;;;;;;0.45;100.00;101026.50;4981446;28;20281;-75
2022/11/28 08:03:47;;;;;;;35.03;13.60;;;;;;;0.49;100.00;101030.84;4981249;28;20216;-73
2022/11/28 08:06:15;;;;;;;38.47;13.27;;;;;;;0.50;100.00;101020.63;4987662;28;20206;-75
2022/11/28 08:08:41;;;;;;;33.53;13.13;;;;;;;0.54;100.00;101018.97;4984111;28;20275;-75
2022/11/28 08:11:09;;;;;;;32.53;14.87;;;;;;;0.60;100.00;101015.66;4979759;28;20212;-75
2022/11/28 08:13:36;;;;;;;39.20;14.37;;;;;;;0.65;100.00;101016.63;4963348;28;20206;-75
2022/11/28 08:16:06;;;;;;;32.37;14.03;;;;;;;0.69;100.00;101014.16;4977575;28;20212;-74
2022/11/28 08:18:32;;;;;;;34.33;14.50;;;;;;;0.75;100.00;101016.84;4979854;28;20221;-75
2022/11/28 08:21:04;;;;;;;29.83;14.70;;;;;;;0.81;100.00;101010.09;4979510;28;20371;-75
2022/11/28 08:23:30;;;;;;;34.00;14.53;;;;;;;0.87;100.00;101016.25;4982422;28;20205;-75
2022/11/28 08:25:56;;;;;;;34.13;14.77;;;;;;;0.90;100.00;101006.03;4958073;28;20210;-76
2022/11/28 08:28:23;;;;;;;37.63;14.73;;;;;;;0.98;100.00;101007.88;4979567;28;20206;-76
2022/11/28 08:30:49;;;;;;;30.57;13.83;;;;;;;1.04;100.00;101002.84;4976096;28;20197;-75
2022/11/28 08:33:17;;;;;;;29.30;13.77;;;;;;;1.09;100.00;100996.09;4978100;28;20198;-74
2022/11/28 08:35:43;;;;;;;32.23;14.60;;;;;;;1.14;100.00;100994.47;4982017;28;20204;-76
2022/11/28 08:38:09;;;;;;;35.90;14.47;;;;;;;1.19;100.00;100994.56;4982734;28;20597;-75
2022/11/28 08:40:36;;;;;;;28.77;13.53;;;;;;;1.23;100.00;100997.25;4982955;28;20745;-74
2022/11/28 08:43:02;;;;;;;30.97;13.90;;;;;;;1.29;100.00;101002.47;4964944;28;20861;-76
2022/11/28 08:45:29;;;;;;;31.33;13.97;;;;;;;1.35;100.00;101004.28;4964863;28;20738;-76
2022/11/28 08:47:55;;;;;;;30.33;13.50;;;;;;;1.40;100.00;101005.22;4981621;28;20210;-75
2022/11/28 08:50:23;;;;;;;31.37;14.00;;;;;;;1.44;100.00;101009.59;4964156;28;20221;-75
2022/11/28 08:52:49;;;;;;;29.17;13.93;;;;;;;1.48;100.00;100998.53;4980889;28;20205;-75
2022/11/28 08:55:16;;;;;;;31.90;13.00;;;;;;;1.56;100.00;101003.78;4961178;28;20229;-75
2022/11/28 08:57:42;;;;;;;36.23;14.30;;;;;;;1.62;100.00;101008.16;4981193;28;21120;-74
2022/11/28 09:00:10;;;;;;;35.10;13.90;;;;;;;1.64;100.00;101007.34;4969686;28;20256;-75
2022/11/28 09:02:36;;;;;;;39.30;15.53;;;;;;;1.72;100.00;101006.63;4967002;28;20774;-75
2022/11/28 09:05:03;;;;;;;37.83;13.93;;;;;;;1.74;100.00;101005.78;4977468;28;20688;-75
2022/11/28 09:07:30;;;;;;;32.57;13.97;;;;;;;1.78;100.00;101010.16;4966469;28;20291;-76
2022/11/28 09:09:57;;;;;;;32.33;14.83;;;;;;;1.84;100.00;101007.66;4974882;28;20252;-75
2022/11/28 09:12:23;;;;;;;33.17;14.57;;;;;;;1.88;100.00;101011.16;4962685;28;20446;-75
2022/11/28 09:14:50;;;;;;;31.27;14.40;;;;;;;1.94;100.00;101011.25;4976431;28;20567;-75
2022/11/28 09:17:16;;;;;;;33.93;14.03;;;;;;;1.99;100.00;101014.78;4980845;28;20263;-75
2022/11/28 09:19:42;;;;;;;38.70;15.07;;;;;;;2.06;100.00;101013.16;4979713;28;20229;-75
2022/11/28 09:22:09;;;;;;;35.63;14.30;;;;;;;2.10;100.00;101007.22;4979835;28;20212;-76
2022/11/28 09:24:37;;;;;;;34.63;14.27;;;;;;;2.11;100.00;101008.06;4977380;28;20202;-75
2022/11/28 09:27:03;;;;;;;33.17;13.77;;;;;;;2.20;100.00;101003.94;4980343;28;20206;-75
2022/11/28 09:29:29;;;;;;;39.07;14.37;;;;;;;2.24;100.00;100999.69;4960372;28;20258;-75
2022/11/28 09:31:56;;;;;;;33.97;14.43;;;;;;;2.27;100.00;101002.31;4980198;28;20382;-75
2022/11/28 09:34:22;;;;;;;28.03;13.73;;;;;;;2.30;100.00;100980.91;4983364;28;20193;-76
2022/11/28 09:36:49;;;;;;;31.63;13.97;;;;;;;2.37;100.00;100988.72;4977106;28;20210;-75
2022/11/28 09:39:16;;;;;;;32.87;14.73;;;;;;;2.44;100.00;100981.94;4981161;28;20237;-75
2022/11/28 09:41:55;;;;;;;30.83;13.80;;;;;;;2.47;100.00;100974.25;4982909;28;20226;-75
2022/11/28 09:44:26;;;;;;;30.73;13.83;;;;;;;2.55;100.00;100974.34;4981848;28;20208;-74
2022/11/28 09:46:57;;;;;;;28.93;13.77;;;;;;;2.56;100.00;100964.06;4977030;28;20194;-75
2022/11/28 09:49:30;;;;;;;31.60;13.10;;;;;;;2.62;100.00;100969.31;4978841;28;20232;-75
2022/11/28 09:52:02;;;;;;;32.80;14.50;;;;;;;2.64;100.00;100957.31;4982047;28;20217;-76
2022/11/28 09:54:37;;;;;;;37.30;15.47;;;;;;;2.68;100.00;100960.78;4977765;28;20291;-75
2022/11/28 09:57:10;;;;;;;31.63;14.47;;;;;;;2.75;100.00;100957.44;4967463;28;20213;-74
2022/11/28 09:59:37;;;;;;;31.13;13.90;;;;;;;2.80;100.00;100967.78;4982026;28;20237;-74
2022/11/28 10:02:18;;;;;;;30.20;14.07;;;;;;;2.88;100.00;100960.13;4985100;28;20202;-75
2022/11/28 10:04:54;;;;;;;28.90;13.77;;;;;;;2.94;100.00;100957.66;4982581;28;20213;-75
2022/11/28 10:07:29;;;;;;;31.43;14.03;;;;;;;3.01;100.00;100965.44;4980930;28;20212;-75
2022/11/28 10:10:03;;;;;;;33.97;13.57;;;;;;;3.07;100.00;100959.47;4977732;28;20290;-75
2022/11/28 10:12:43;;;;;;;33.43;15.33;;;;;;;3.14;100.00;100966.41;4988402;28;20648;-76
2022/11/28 10:15:20;;;;;;;28.63;13.20;;;;;;;3.19;100.00;100967.34;4989190;28;20688;-75
2022/11/28 10:17:52;;;;;;;27.27;13.80;;;;;;;3.22;100.00;100961.34;4978152;28;20201;-75
2022/11/28 10:20:22;;;;;;;32.67;13.83;;;;;;;3.28;100.00;100965.69;4969646;28;20609;-76
2022/11/28 10:22:53;;;;;;;26.33;12.53;;;;;;;3.36;100.00;100956.31;4961118;28;20206;-75
2022/11/28 10:25:24;;;;;;;25.30;12.83;;;;;;;3.41;100.00;100959.78;4964264;28;20205;-74
2022/11/28 10:27:52;;;;;;;25.43;12.23;;;;;;;3.42;100.00;100958.94;4984098;28;20225;-75
2022/11/28 10:30:22;;;;;;;24.83;11.87;;;;;;;3.45;100.00;100955.53;4987218;28;20218;-75
2022/11/28 10:32:56;;;;;;;22.90;10.70;;;;;;;3.51;100.00;100946.13;4970976;28;20213;-75
2022/11/28 10:35:28;;;;;;;20.33;11.03;;;;;;;3.59;100.00;100956.53;4981150;28;20210;-74
2022/11/28 10:37:54;;;;;;;22.80;10.50;;;;;;;3.62;100.00;100956.53;4983639;28;20229;-73
2022/11/28 10:40:28;;;;;;;21.50;10.47;;;;;;;3.63;100.00;100954.81;4994140;23;20560;-71
2022/11/28 10:43:02;;;;;;;19.33;10.40;;;;;;;3.67;100.00;100946.25;4980845;28;20200;-70
2022/11/28 10:45:34;;;;;;;17.60;9.00;;;;;;;3.69;100.00;100942.81;4983723;28;20270;-70
2022/11/28 10:48:25;;;;;;;16.63;9.33;;;;;;;3.81;100.00;100941.19;4980818;28;20209;-70
2022/11/28 10:51:03;;;;;;;12.23;8.23;;;;;;;3.86;100.00;100930.03;4961239;28;20233;-71
2022/11/28 10:53:41;;;;;;;17.60;9.50;;;;;;;3.95;100.00;100927.50;4956430;28;20298;-71
2022/11/28 10:56:22;;;;;;;12.37;7.90;;;;;;;3.97;100.00;100928.41;4960061;28;20694;-71
2022/11/28 10:58:58;;;;;;;17.23;8.97;;;;;;;4.06;100.00;100934.47;4959337;28;20232;-70
2022/11/28 11:01:28;;;;;;;14.10;8.00;;;;;;;4.11;100.00;100930.19;4958724;28;20206;-71
2022/11/28 11:03:55;;;;;;;17.20;8.40;;;;;;;4.15;100.00;100929.34;4953254;28;20297;-70
2022/11/28 11:06:25;;;;;;;13.07;7.83;;;;;;;4.18;100.00;100934.53;4956153;28;20202;-70
2022/11/28 11:08:51;;;;;;;14.23;7.70;;;;;;;4.23;100.00;100934.56;4957256;28;20199;-70
2022/11/28 11:11:24;;;;;;;15.23;7.53;;;;;;;4.27;100.00;100929.41;4959802;28;20214;-71
2022/11/28 11:13:59;;;;;;;11.27;7.20;;;;;;;4.26;100.00;100932.00;4952968;28;20666;-71
2022/11/28 11:16:46;;;;;;;12.10;7.23;;;;;;;4.30;100.00;100932.00;4955747;28;20281;-71
2022/11/28 11:19:23;;;;;;;11.63;7.43;;;;;;;4.35;100.00;100934.63;4949134;28;20230;-70